Time;durP1;ratioP1;P1;durP2;ratioP2;P2;SDS_P1;SDS_P2;PMS_P1;PMS_P2;Temp;Humidity;BMP_temperature;BMP_pressure;BME280_temperature;BME280_humidity;BME280_pressure;Samples;Min_cycle;Max_cycle;Signal;HPM_P1;HPM_P2
2023/10/15 00:00:43;;;;;;;12.43;8.43;;;12.00;99.90;;;;;;4226565;28;20040;-56
2023/10/15 00:02:46;;;;;;;14.73;8.00;;;12.00;99.90;;;;;;4227941;28;20496;-58
2023/10/15 00:04:47;;;;;;;14.77;8.80;;;12.00;99.90;;;;;;4226454;28;20032;-60
2023/10/15 00:06:48;;;;;;;15.50;8.07;;;11.90;99.90;;;;;;4227510;28;20081;-60
2023/10/15 00:08:50;;;;;;;19.50;9.17;;;11.90;99.90;;;;;;4226431;28;20036;-59
2023/10/15 00:10:51;;;;;;;16.73;10.27;;;11.90;99.90;;;;;;4227420;28;20530;-58
2023/10/15 00:12:54;;;;;;;14.30;9.63;;;11.80;99.90;;;;;;4227122;28;20048;-60
2023/10/15 00:14:55;;;;;;;16.57;9.77;;;11.80;99.90;;;;;;4227041;28;20341;-58
2023/10/15 00:16:59;;;;;;;17.47;10.60;;;11.70;99.90;;;;;;4227216;28;20039;-60
2023/10/15 00:19:09;;;;;;;18.77;10.40;;;11.80;99.90;;;;;;4227514;28;20222;-60
2023/10/15 00:21:13;;;;;;;16.30;10.00;;;11.70;99.90;;;;;;4227349;28;20043;-61
2023/10/15 00:23:14;;;;;;;16.97;9.73;;;11.60;99.90;;;;;;4226716;27;20080;-61
2023/10/15 00:25:18;;;;;;;16.83;10.07;;;11.60;99.90;;;;;;4227726;28;20047;-56
2023/10/15 00:27:20;;;;;;;13.73;10.20;;;11.60;99.90;;;;;;4226618;28;20104;-60
2023/10/15 00:29:24;;;;;;;15.37;9.30;;;11.70;99.90;;;;;;4228034;28;20035;-58
2023/10/15 00:31:25;;;;;;;16.57;9.57;;;11.60;99.90;;;;;;4226381;28;20065;-61
2023/10/15 00:33:27;;;;;;;16.23;9.70;;;11.70;99.90;;;;;;4227960;28;20124;-62
2023/10/15 00:35:33;;;;;;;16.00;9.60;;;11.70;99.90;;;;;;4226409;28;20073;-55
2023/10/15 00:37:35;;;;;;;17.13;10.10;;;11.70;99.90;;;;;;4227477;28;20501;-60
2023/10/15 00:39:41;;;;;;;16.53;9.40;;;11.70;99.90;;;;;;4226520;28;20047;-60
2023/10/15 00:41:45;;;;;;;20.70;10.97;;;11.80;99.90;;;;;;4227553;28;20509;-59
2023/10/15 00:43:59;;;;;;;19.43;9.83;;;11.80;99.90;;;;;;4228572;28;20386;-60
2023/10/15 00:46:03;;;;;;;16.67;10.10;;;11.80;99.90;;;;;;4230805;28;20144;-61
2023/10/15 00:50:09;;;;;;;15.67;9.47;;;11.80;99.90;;;;;;4231618;28;20558;-59
2023/10/15 00:52:11;;;;;;;14.87;9.67;;;11.80;99.90;;;;;;4230147;28;20019;-61
2023/10/15 00:54:15;;;;;;;15.57;9.37;;;11.80;99.90;;;;;;4230760;28;20019;-57
2023/10/15 00:56:22;;;;;;;16.50;8.97;;;11.90;99.90;;;;;;4230146;28;20043;-61
2023/10/15 00:58:31;;;;;;;13.30;9.10;;;11.80;99.90;;;;;;4230806;28;20028;-60
2023/10/15 01:02:52;;;;;;;19.47;9.10;;;11.80;99.90;;;;;;4230854;28;20084;-61
2023/10/15 01:04:58;;;;;;;15.67;8.93;;;11.90;99.90;;;;;;4229883;28;20062;-60
2023/10/15 01:07:00;;;;;;;15.30;8.73;;;11.90;99.90;;;;;;4230118;28;20048;-61
2023/10/15 01:09:09;;;;;;;11.77;8.30;;;11.90;99.90;;;;;;4229875;28;20560;-59
2023/10/15 01:11:15;;;;;;;15.63;9.10;;;11.90;99.90;;;;;;4229943;28;20040;-57
2023/10/15 01:13:21;;;;;;;14.73;9.73;;;11.90;99.90;;;;;;4229981;28;20549;-59
2023/10/15 01:15:22;;;;;;;14.97;8.33;;;11.80;99.90;;;;;;4230068;28;20128;-60
2023/10/15 01:17:26;;;;;;;13.77;7.40;;;11.80;99.90;;;;;;4230162;28;20548;-60
2023/10/15 01:19:31;;;;;;;11.00;6.87;;;11.80;99.90;;;;;;4229698;28;20047;-60
2023/10/15 01:21:57;;;;;;;10.20;6.00;;;11.70;99.90;;;;;;4230943;28;20035;-60
2023/10/15 01:24:04;;;;;;;12.23;6.20;;;11.70;99.90;;;;;;4229841;28;20101;-59
2023/10/15 01:26:09;;;;;;;9.83;6.20;;;11.60;99.90;;;;;;4229881;28;20569;-60
2023/10/15 01:28:11;;;;;;;8.47;6.10;;;11.60;99.90;;;;;;4229566;28;20068;-56
2023/10/15 01:30:17;;;;;;;11.30;6.47;;;11.60;99.90;;;;;;4230169;28;20061;-59
2023/10/15 01:32:29;;;;;;;11.37;7.43;;;11.60;99.90;;;;;;4229427;28;20468;-55
2023/10/15 01:34:37;;;;;;;14.20;8.37;;;11.60;99.90;;;;;;4229997;28;20092;-57
2023/10/15 01:36:38;;;;;;;16.57;8.80;;;11.50;99.90;;;;;;4229404;28;20024;-59
2023/10/15 01:38:39;;;;;;;15.03;8.83;;;11.50;99.90;;;;;;4230515;28;20418;-59
2023/10/15 01:40:44;;;;;;;14.50;7.90;;;11.50;99.90;;;;;;4229032;28;20392;-56
2023/10/15 01:42:54;;;;;;;12.17;7.37;;;11.50;99.90;;;;;;4230180;28;20442;-60
2023/10/15 01:45:17;;;;;;;17.37;9.23;;;11.40;99.90;;;;;;4228849;28;20112;-60
2023/10/15 01:47:18;;;;;;;15.77;8.50;;;11.40;99.90;;;;;;4229933;28;20450;-61
2023/10/15 01:49:31;;;;;;;14.33;10.10;;;11.30;99.90;;;;;;4229226;28;20027;-60
2023/10/15 01:51:39;;;;;;;18.03;10.53;;;11.20;99.90;;;;;;4230100;28;20043;-57
2023/10/15 01:53:41;;;;;;;19.93;11.07;;;11.20;99.90;;;;;;4228776;28;20525;-60
2023/10/15 01:55:55;;;;;;;14.03;9.17;;;11.10;99.90;;;;;;4228983;28;20093;-55
2023/10/15 01:58:00;;;;;;;19.20;10.10;;;11.20;99.90;;;;;;4229099;27;20035;-56
2023/10/15 02:00:44;;;;;;;15.37;9.63;;;11.10;99.90;;;;;;4230152;28;20044;-55
2023/10/15 02:02:25;;;;;;;13.23;8.63;;;11.10;99.90;;;;;;4225839;28;20778;-61
2023/10/15 02:04:27;;;;;;;17.13;9.30;;;11.20;99.90;;;;;;4229868;28;20080;-60
2023/10/15 02:06:30;;;;;;;16.40;9.93;;;11.10;99.90;;;;;;4228383;28;20055;-57
2023/10/15 02:08:31;;;;;;;18.83;10.63;;;11.10;99.90;;;;;;4229536;28;20089;-61
2023/10/15 02:10:35;;;;;;;19.50;10.87;;;11.10;99.90;;;;;;4228648;28;20036;-62
2023/10/15 02:12:36;;;;;;;16.93;10.63;;;11.10;99.90;;;;;;4229904;27;20043;-59
2023/10/15 02:14:41;;;;;;;17.40;10.60;;;11.20;99.90;;;;;;4228439;27;20035;-59
2023/10/15 02:16:42;;;;;;;23.50;12.03;;;11.20;99.90;;;;;;4229857;28;20101;-61
2023/10/15 02:18:51;;;;;;;19.23;12.03;;;11.10;99.90;;;;;;4228831;28;20099;-61
2023/10/15 02:22:54;;;;;;;23.80;11.53;;;11.00;99.90;;;;;;4229155;28;20491;-61
2023/10/15 02:24:56;;;;;;;20.50;12.07;;;11.00;99.90;;;;;;4229116;28;20484;-61
2023/10/15 02:26:58;;;;;;;19.27;11.83;;;11.00;99.90;;;;;;4228932;28;20100;-59
2023/10/15 02:29:27;;;;;;;19.33;11.33;;;11.00;99.90;;;;;;4229027;28;20019;-61
2023/10/15 02:31:29;;;;;;;24.17;11.53;;;11.00;99.90;;;;;;4228763;28;20027;-61
2023/10/15 02:33:30;;;;;;;23.58;10.98;;;11.00;99.90;;;;;;4229105;28;20028;-60
2023/10/15 02:35:39;;;;;;;22.13;13.13;;;11.00;99.90;;;;;;4229031;28;20508;-59
2023/10/15 02:37:40;;;;;;;23.40;12.13;;;11.00;99.90;;;;;;4229020;28;20043;-58
2023/10/15 02:39:44;;;;;;;17.80;11.17;;;11.00;99.90;;;;;;4229003;28;20540;-60
2023/10/15 02:41:46;;;;;;;18.60;11.30;;;11.00;99.90;;;;;;4228545;28;20039;-60
2023/10/15 02:43:56;;;;;;;19.10;11.57;;;11.00;99.90;;;;;;4229142;28;20084;-59
2023/10/15 02:46:01;;;;;;;18.40;11.65;;;11.00;99.90;;;;;;4228113;28;20036;-61
2023/10/15 02:48:19;;;;;;;18.60;11.93;;;11.10;99.90;;;;;;4229341;28;20460;-60
2023/10/15 02:50:26;;;;;;;19.57;12.20;;;11.00;99.90;;;;;;4228805;28;20040;-60
2023/10/15 02:52:35;;;;;;;22.23;12.00;;;11.00;99.90;;;;;;4228962;28;20429;-60
2023/10/15 02:54:37;;;;;;;18.87;11.60;;;11.00;99.90;;;;;;4227998;28;20104;-55
2023/10/15 02:56:41;;;;;;;20.60;12.03;;;11.00;99.90;;;;;;4228875;28;20035;-61
2023/10/15 02:58:44;;;;;;;22.43;11.53;;;11.00;99.90;;;;;;4227941;28;20491;-60
2023/10/15 03:00:51;;;;;;;18.07;11.87;;;11.00;99.90;;;;;;4229160;28;20065;-60
2023/10/15 03:02:52;;;;;;;17.90;11.97;;;11.00;99.90;;;;;;4227831;28;20047;-56
2023/10/15 03:05:01;;;;;;;22.00;11.93;;;11.00;99.90;;;;;;4229131;28;20061;-59
2023/10/15 03:07:19;;;;;;;18.77;11.77;;;11.00;99.90;;;;;;4227197;28;20093;-61
2023/10/15 03:09:20;;;;;;;21.70;11.83;;;11.00;99.90;;;;;;4228782;28;20116;-57
2023/10/15 03:11:24;;;;;;;22.43;12.80;;;11.00;99.90;;;;;;4227657;28;20097;-60
2023/10/15 03:13:26;;;;;;;20.57;12.40;;;10.90;99.90;;;;;;4229002;28;20077;-51
2023/10/15 03:15:27;;;;;;;21.43;12.37;;;10.90;99.90;;;;;;4227799;28;20579;-60
2023/10/15 03:17:31;;;;;;;22.17;14.47;;;10.80;99.90;;;;;;4228534;28;20047;-58
2023/10/15 03:19:33;;;;;;;24.53;14.57;;;10.70;99.90;;;;;;4227887;28;20480;-60
2023/10/15 03:21:38;;;;;;;26.27;15.30;;;10.60;99.90;;;;;;4228686;27;20043;-61
2023/10/15 03:23:41;;;;;;;25.77;14.47;;;10.50;99.90;;;;;;4227229;28;20092;-60
2023/10/15 03:25:42;;;;;;;22.20;14.87;;;10.40;99.90;;;;;;4228491;28;20040;-60
2023/10/15 03:27:46;;;;;;;25.77;14.77;;;10.40;99.90;;;;;;4227521;28;20563;-59
2023/10/15 03:29:47;;;;;;;27.90;16.60;;;10.30;99.90;;;;;;4228256;28;20493;-61
2023/10/15 03:32:02;;;;;;;29.60;16.00;;;10.30;99.90;;;;;;4227866;28;20103;-60
2023/10/15 03:36:12;;;;;;;26.77;15.73;;;10.30;99.90;;;;;;4228135;28;20023;-61
2023/10/15 03:38:14;;;;;;;30.27;16.30;;;10.30;99.90;;;;;;4227686;28;20035;-59
2023/10/15 03:40:31;;;;;;;24.33;15.17;;;10.40;99.90;;;;;;4227884;28;20007;-60
2023/10/15 03:42:32;;;;;;;26.67;15.77;;;10.40;99.90;;;;;;4227650;27;20043;-61
2023/10/15 03:44:33;;;;;;;23.93;14.70;;;10.50;99.90;;;;;;4228031;28;20047;-60
2023/10/15 03:46:34;;;;;;;25.77;12.33;;;10.50;99.90;;;;;;4227076;28;20084;-61
2023/10/15 03:48:47;;;;;;;22.00;15.03;;;10.60;99.90;;;;;;4228304;28;20028;-59
2023/10/15 03:50:54;;;;;;;24.47;14.70;;;10.60;99.90;;;;;;4227439;28;20040;-59
2023/10/15 03:52:58;;;;;;;25.80;15.67;;;10.70;99.90;;;;;;4228334;28;20365;-61
2023/10/15 03:55:00;;;;;;;23.73;15.30;;;10.70;99.90;;;;;;4226969;28;20430;-51
2023/10/15 03:57:01;;;;;;;28.20;15.83;;;10.80;99.90;;;;;;4228083;28;20041;-60
2023/10/15 03:59:03;;;;;;;18.43;14.03;;;10.80;99.90;;;;;;4226594;28;20081;-60
2023/10/15 04:01:20;;;;;;;26.83;16.30;;;10.80;99.90;;;;;;4228182;28;20437;-58
2023/10/15 04:03:27;;;;;;;25.13;15.87;;;10.90;99.90;;;;;;4226917;28;20533;-58
2023/10/15 04:05:31;;;;;;;24.80;16.17;;;10.90;99.90;;;;;;4228160;28;20039;-61
2023/10/15 04:07:38;;;;;;;26.70;15.37;;;11.00;99.90;;;;;;4226867;28;20031;-60
2023/10/15 04:09:39;;;;;;;22.50;14.43;;;11.00;99.90;;;;;;4227848;28;20043;-61
2023/10/15 04:11:44;;;;;;;23.57;15.30;;;11.00;99.90;;;;;;4226805;28;20480;-57
2023/10/15 04:13:45;;;;;;;24.37;15.30;;;11.00;99.90;;;;;;4228229;28;20077;-58
2023/10/15 04:15:47;;;;;;;26.40;15.13;;;11.00;99.90;;;;;;4226964;28;20430;-59
2023/10/15 04:17:48;;;;;;;26.00;16.73;;;11.00;99.90;;;;;;4227488;28;20528;-59
2023/10/15 04:19:49;;;;;;;23.53;14.83;;;11.00;99.90;;;;;;4227470;28;20069;-60
2023/10/15 04:21:52;;;;;;;27.40;15.27;;;10.90;99.90;;;;;;4227775;28;20460;-60
2023/10/15 04:23:56;;;;;;;23.40;15.67;;;11.00;99.90;;;;;;4226932;28;20055;-58
2023/10/15 04:26:11;;;;;;;21.60;15.47;;;11.00;99.90;;;;;;4227379;28;20088;-60
2023/10/15 04:28:14;;;;;;;24.73;16.30;;;11.00;99.90;;;;;;4226599;28;20036;-61
2023/10/15 04:30:16;;;;;;;22.67;15.43;;;10.90;99.90;;;;;;4227335;28;20124;-61
2023/10/15 04:33:08;;;;;;;22.07;14.77;;;11.00;99.90;;;;;;4227249;28;20036;-58
2023/10/15 04:34:39;;;;;;;27.20;15.07;;;11.00;99.90;;;;;;4219922;28;20108;-54
2023/10/15 04:36:40;;;;;;;24.77;15.97;;;11.10;99.90;;;;;;4227098;28;20039;-57
2023/10/15 04:38:42;;;;;;;21.53;15.07;;;11.10;99.90;;;;;;4226943;28;20019;-58
2023/10/15 04:43:00;;;;;;;22.83;14.43;;;11.10;99.90;;;;;;4226995;28;20116;-60
2023/10/15 04:45:01;;;;;;;20.97;13.80;;;11.00;99.90;;;;;;4227403;28;20499;-53
2023/10/15 04:47:05;;;;;;;22.77;14.90;;;10.90;99.90;;;;;;4226516;28;20458;-59
2023/10/15 04:49:07;;;;;;;22.90;15.07;;;10.90;99.90;;;;;;4227793;28;20051;-59
2023/10/15 04:51:14;;;;;;;26.13;15.83;;;10.80;99.90;;;;;;4226766;28;20031;-55
2023/10/15 04:55:22;;;;;;;24.93;16.13;;;10.80;99.90;;;;;;4226761;28;20088;-59
2023/10/15 04:57:24;;;;;;;24.60;14.47;;;10.80;99.90;;;;;;4227815;28;20536;-57
2023/10/15 04:59:25;;;;;;;22.10;13.53;;;10.90;99.90;;;;;;4226373;28;20112;-61
2023/10/15 05:01:26;;;;;;;21.10;13.87;;;10.80;99.90;;;;;;4227238;28;20077;-60
2023/10/15 05:03:27;;;;;;;25.73;14.23;;;10.90;99.90;;;;;;4226303;28;20104;-61
2023/10/15 05:05:30;;;;;;;22.87;14.00;;;10.90;99.90;;;;;;4227715;28;20438;-58
2023/10/15 05:07:32;;;;;;;23.93;13.77;;;10.90;99.90;;;;;;4226340;28;20088;-58
2023/10/15 05:09:39;;;;;;;23.30;14.87;;;10.90;99.90;;;;;;4227276;28;20098;-58
2023/10/15 05:11:41;;;;;;;24.67;14.37;;;10.90;99.90;;;;;;4225978;28;20027;-57
2023/10/15 05:13:44;;;;;;;25.03;15.53;;;10.90;99.90;;;;;;4227208;28;20480;-61
2023/10/15 05:15:49;;;;;;;26.50;15.37;;;10.90;99.90;;;;;;4226629;28;20065;-56
2023/10/15 05:17:50;;;;;;;24.17;14.23;;;10.90;99.90;;;;;;4226928;28;20057;-59
2023/10/15 05:19:53;;;;;;;25.03;13.67;;;10.90;99.90;;;;;;4227451;28;20055;-59
2023/10/15 05:21:54;;;;;;;24.73;14.60;;;10.90;99.90;;;;;;4226600;28;20024;-52
2023/10/15 05:23:55;;;;;;;24.70;14.57;;;10.90;99.90;;;;;;4226873;28;20047;-60
2023/10/15 05:25:56;;;;;;;29.97;14.90;;;10.90;99.90;;;;;;4226191;28;20057;-58
2023/10/15 05:27:59;;;;;;;25.83;14.53;;;10.90;99.90;;;;;;4227346;28;20485;-60
2023/10/15 05:30:00;;;;;;;33.13;17.97;;;10.90;99.90;;;;;;4228437;28;20092;-62
2023/10/15 05:32:01;;;;;;;32.27;18.60;;;10.90;99.90;;;;;;4239226;27;20063;-61
2023/10/15 05:34:04;;;;;;;29.83;16.73;;;10.90;99.90;;;;;;4238472;27;20032;-61
2023/10/15 05:36:06;;;;;;;25.17;16.90;;;10.90;99.90;;;;;;4243401;27;20471;-62
2023/10/15 05:38:08;;;;;;;30.40;17.53;;;11.00;99.90;;;;;;4234189;27;20046;-59
2023/10/15 05:40:09;;;;;;;28.20;16.00;;;11.00;99.90;;;;;;4238861;27;20155;-61
2023/10/15 05:42:10;;;;;;;32.53;17.43;;;11.00;99.90;;;;;;4241673;27;20096;-61
2023/10/15 05:44:11;;;;;;;27.30;16.23;;;11.00;99.90;;;;;;4234883;27;20467;-61
2023/10/15 05:46:12;;;;;;;33.03;17.03;;;11.10;99.90;;;;;;4236453;27;20100;-62
2023/10/15 05:48:13;;;;;;;35.23;18.00;;;11.10;99.90;;;;;;4243458;27;20175;-61
2023/10/15 05:50:16;;;;;;;24.30;16.63;;;11.20;99.90;;;;;;4247332;27;20039;-61
2023/10/15 05:52:18;;;;;;;29.50;17.43;;;11.20;99.90;;;;;;4246032;27;20031;-62
2023/10/15 05:54:19;;;;;;;29.90;18.07;;;11.30;99.90;;;;;;4246926;27;20088;-60
2023/10/15 05:56:21;;;;;;;29.03;18.57;;;11.20;99.90;;;;;;4246035;27;20039;-57
2023/10/15 05:58:22;;;;;;;30.93;17.40;;;11.30;99.90;;;;;;4247238;27;20034;-61
2023/10/15 06:00:26;;;;;;;26.70;17.20;;;11.30;99.90;;;;;;4246268;27;20444;-56
2023/10/15 06:02:27;;;;;;;26.53;17.57;;;11.40;99.90;;;;;;4246649;27;20047;-60
2023/10/15 06:04:28;;;;;;;26.13;17.87;;;11.40;99.90;;;;;;4245843;27;20027;-58
2023/10/15 06:06:29;;;;;;;24.27;16.27;;;11.40;99.90;;;;;;4247290;27;20509;-61
2023/10/15 06:08:31;;;;;;;31.53;17.80;;;11.40;99.90;;;;;;4244281;27;20035;-60
2023/10/15 06:10:32;;;;;;;26.97;16.27;;;11.40;99.90;;;;;;4246877;27;20043;-60
2023/10/15 06:12:34;;;;;;;25.03;16.70;;;11.40;99.90;;;;;;4245765;27;20039;-61
2023/10/15 06:14:35;;;;;;;30.73;16.73;;;11.50;99.90;;;;;;4246850;27;20072;-60
2023/10/15 06:16:37;;;;;;;31.10;18.77;;;11.50;99.90;;;;;;4245077;27;20031;-58
2023/10/15 06:18:38;;;;;;;33.70;16.53;;;11.50;99.90;;;;;;4229428;28;20044;-61
2023/10/15 06:20:40;;;;;;;26.33;16.37;;;11.50;99.90;;;;;;4229031;28;20035;-61
2023/10/15 06:22:42;;;;;;;30.30;16.63;;;11.50;99.90;;;;;;4228529;28;20085;-57
2023/10/15 06:24:46;;;;;;;31.53;18.37;;;11.50;99.90;;;;;;4228076;28;20089;-59
2023/10/15 06:26:48;;;;;;;29.17;17.13;;;11.60;99.90;;;;;;4228658;27;20044;-62
2023/10/15 06:28:49;;;;;;;28.33;17.23;;;11.60;99.90;;;;;;4229573;28;20093;-61
2023/10/15 06:30:51;;;;;;;30.80;17.50;;;11.70;99.90;;;;;;4227690;28;20112;-62
2023/10/15 06:32:53;;;;;;;28.73;17.80;;;11.70;99.90;;;;;;4229109;28;20036;-61
2023/10/15 06:34:54;;;;;;;27.50;17.93;;;11.70;99.90;;;;;;4228450;27;20039;-61
2023/10/15 06:36:55;;;;;;;28.77;16.87;;;11.80;99.90;;;;;;4229381;28;20495;-58
2023/10/15 06:39:00;;;;;;;23.70;16.77;;;11.80;99.90;;;;;;4228473;28;20582;-62
2023/10/15 06:41:01;;;;;;;31.83;16.10;;;11.80;99.90;;;;;;4228819;28;20031;-61
2023/10/15 06:43:03;;;;;;;26.83;16.50;;;11.80;99.90;;;;;;4228387;28;20517;-58
2023/10/15 06:45:08;;;;;;;32.27;16.90;;;11.80;99.90;;;;;;4229193;28;20032;-54
2023/10/15 06:47:09;;;;;;;30.73;18.10;;;11.80;99.90;;;;;;4232892;27;20043;-62
2023/10/15 06:49:10;;;;;;;26.33;17.53;;;11.90;99.90;;;;;;4246620;27;20035;-61
2023/10/15 06:51:12;;;;;;;25.40;17.20;;;11.90;99.90;;;;;;4236081;27;21094;-61
2023/10/15 06:53:14;;;;;;;28.53;18.23;;;11.90;99.90;;;;;;4228826;28;20055;-60
2023/10/15 06:55:18;;;;;;;30.73;17.70;;;11.90;99.90;;;;;;4227910;28;20080;-58
2023/10/15 06:57:20;;;;;;;25.50;16.00;;;12.00;99.90;;;;;;4227184;28;20024;-57
2023/10/15 06:59:21;;;;;;;26.73;16.63;;;12.00;99.90;;;;;;4228032;28;20037;-61
2023/10/15 07:01:26;;;;;;;25.00;16.47;;;12.10;99.90;;;;;;4228293;27;20085;-59
2023/10/15 07:03:27;;;;;;;34.27;18.30;;;12.10;99.90;;;;;;4228982;28;20047;-61
2023/10/15 07:05:29;;;;;;;30.73;19.40;;;12.00;99.90;;;;;;4227755;28;20073;-61
2023/10/15 07:07:32;;;;;;;30.77;17.70;;;12.00;99.90;;;;;;4228852;28;20100;-60
2023/10/15 07:09:35;;;;;;;30.87;17.20;;;12.10;99.90;;;;;;4227447;28;20027;-60
2023/10/15 07:11:36;;;;;;;28.70;16.67;;;12.10;99.90;;;;;;4228946;28;20160;-61
2023/10/15 07:13:37;;;;;;;24.10;16.47;;;12.20;99.90;;;;;;4227832;27;20031;-61
2023/10/15 07:15:38;;;;;;;32.57;16.97;;;12.20;99.90;;;;;;4228748;28;20031;-62
2023/10/15 07:17:40;;;;;;;28.17;17.07;;;12.20;99.90;;;;;;4227403;28;20426;-59
2023/10/15 07:19:42;;;;;;;28.23;16.43;;;12.20;99.90;;;;;;4228775;28;20031;-61
2023/10/15 07:21:43;;;;;;;22.30;15.77;;;12.30;99.90;;;;;;4227510;28;20036;-58
2023/10/15 07:23:45;;;;;;;28.03;16.43;;;12.40;99.90;;;;;;4227721;28;20475;-61
2023/10/15 07:25:46;;;;;;;27.17;16.23;;;12.40;99.90;;;;;;4227709;27;20544;-59
2023/10/15 07:27:49;;;;;;;25.63;15.90;;;12.50;99.90;;;;;;4227990;28;20365;-59
2023/10/15 07:29:50;;;;;;;29.70;17.23;;;12.50;99.90;;;;;;4227589;28;20039;-61
2023/10/15 07:31:51;;;;;;;32.03;17.57;;;12.60;99.90;;;;;;4227714;27;20039;-60
2023/10/15 07:33:53;;;;;;;28.73;16.67;;;12.60;99.90;;;;;;4228116;28;20051;-59
2023/10/15 07:35:54;;;;;;;28.17;18.57;;;12.60;99.90;;;;;;4227502;27;20425;-61
2023/10/15 07:37:56;;;;;;;28.87;17.37;;;12.60;99.90;;;;;;4228137;28;20035;-59
2023/10/15 07:39:58;;;;;;;33.27;18.13;;;12.70;99.90;;;;;;4226438;28;20438;-61
2023/10/15 07:42:00;;;;;;;26.40;17.50;;;12.70;99.90;;;;;;4228539;28;20040;-59
2023/10/15 07:44:04;;;;;;;29.40;17.93;;;12.80;99.90;;;;;;4225692;27;20036;-61
2023/10/15 07:46:05;;;;;;;29.90;17.80;;;12.90;99.90;;;;;;4228542;27;20176;-59
2023/10/15 07:48:07;;;;;;;31.47;19.03;;;13.00;99.90;;;;;;4227280;27;20152;-59
2023/10/15 07:50:16;;;;;;;30.47;20.03;;;13.10;99.90;;;;;;4228513;28;20028;-59
2023/10/15 07:52:17;;;;;;;34.80;19.90;;;13.20;99.90;;;;;;4226307;28;20453;-55
2023/10/15 07:54:19;;;;;;;31.07;21.17;;;13.30;99.90;;;;;;4228133;27;20096;-59
2023/10/15 07:56:21;;;;;;;27.90;19.27;;;13.30;99.90;;;;;;4227482;27;20035;-59
2023/10/15 07:58:23;;;;;;;33.53;20.13;;;13.30;99.90;;;;;;4227681;28;20036;-61
2023/10/15 08:00:26;;;;;;;30.80;19.23;;;13.40;99.90;;;;;;4226609;28;20092;-60
2023/10/15 08:02:28;;;;;;;30.83;19.90;;;13.50;99.90;;;;;;4227904;27;20544;-58
2023/10/15 08:04:29;;;;;;;27.73;18.53;;;13.60;99.90;;;;;;4227729;27;20100;-59
2023/10/15 08:06:30;;;;;;;26.77;16.83;;;13.80;99.90;;;;;;4227184;28;20020;-60
2023/10/15 08:08:31;;;;;;;26.35;16.88;;;14.00;99.90;;;;;;4227290;27;20096;-57
2023/10/15 08:10:36;;;;;;;27.93;16.23;;;14.10;99.90;;;;;;4227191;27;20449;-60
2023/10/15 08:12:38;;;;;;;24.50;15.55;;;14.40;99.90;;;;;;4227625;27;20080;-60
2023/10/15 08:14:39;;;;;;;27.98;18.98;;;14.50;99.90;;;;;;4226225;28;20044;-60
2023/10/15 08:16:40;;;;;;;26.15;16.95;;;14.70;99.90;;;;;;4227549;28;20120;-59
2023/10/15 08:18:42;;;;;;;26.10;18.40;;;14.80;99.90;;;;;;4226252;28;20035;-59
2023/10/15 08:20:43;;;;;;;42.97;25.33;;;14.90;99.90;;;;;;4228007;28;20678;-60
2023/10/15 08:22:45;;;;;;;31.77;23.38;;;15.00;99.90;;;;;;4226771;27;20104;-62
2023/10/15 08:24:47;;;;;;;34.35;21.83;;;15.10;99.90;;;;;;4227627;27;20052;-58
2023/10/15 08:26:49;;;;;;;30.45;23.23;;;15.20;99.90;;;;;;4226307;28;20069;-58
2023/10/15 08:28:50;;;;;;;35.20;23.65;;;15.30;99.90;;;;;;4227335;28;20496;-56
2023/10/15 08:30:54;;;;;;;35.20;22.88;;;15.30;99.90;;;;;;4226575;28;20027;-60
2023/10/15 08:32:55;;;;;;;29.95;21.23;;;15.40;99.90;;;;;;4227007;28;20052;-61
2023/10/15 08:34:57;;;;;;;25.92;20.20;;;15.40;99.90;;;;;;4226491;28;20540;-60
2023/10/15 08:36:58;;;;;;;27.95;20.58;;;15.40;99.90;;;;;;4227671;27;20035;-60
2023/10/15 08:39:06;;;;;;;25.63;19.25;;;15.40;99.90;;;;;;4226745;28;20081;-61
2023/10/15 08:41:10;;;;;;;26.02;17.25;;;15.40;99.90;;;;;;4226724;28;20540;-60
2023/10/15 08:43:20;;;;;;;21.35;16.63;;;15.30;99.90;;;;;;4227435;27;20047;-62
2023/10/15 08:45:24;;;;;;;21.83;16.98;;;15.40;99.90;;;;;;4226557;28;20085;-62
2023/10/15 08:47:26;;;;;;;26.77;17.15;;;15.40;99.90;;;;;;4227530;27;20107;-62
2023/10/15 08:49:31;;;;;;;23.75;17.30;;;15.40;99.90;;;;;;4226678;27;20418;-62
2023/10/15 08:51:34;;;;;;;27.05;17.75;;;15.40;99.90;;;;;;4227581;28;20038;-58
2023/10/15 08:53:39;;;;;;;22.88;17.15;;;15.30;99.90;;;;;;4225940;28;20442;-62
2023/10/15 08:55:43;;;;;;;27.48;16.23;;;15.30;99.90;;;;;;4227194;28;20039;-60
2023/10/15 08:57:45;;;;;;;21.80;16.25;;;15.30;99.90;;;;;;4226794;27;20032;-61
2023/10/15 08:59:48;;;;;;;25.55;15.82;;;15.20;99.90;;;;;;4227200;28;20417;-60
2023/10/15 09:01:54;;;;;;;20.23;14.23;;;15.20;99.90;;;;;;4224405;28;20109;-60
2023/10/15 09:03:56;;;;;;;19.88;13.95;;;15.20;99.90;;;;;;4228192;27;20044;-56
2023/10/15 09:05:58;;;;;;;23.90;14.45;;;15.10;99.90;;;;;;4229632;27;20131;-61
2023/10/15 09:08:07;;;;;;;18.98;14.48;;;15.00;99.90;;;;;;4230136;28;20097;-61
2023/10/15 09:10:13;;;;;;;18.65;13.73;;;15.00;99.90;;;;;;4229807;27;20040;-59
2023/10/15 09:12:15;;;;;;;18.13;13.25;;;15.00;99.90;;;;;;4230465;28;20084;-61
2023/10/15 09:14:16;;;;;;;18.45;12.13;;;15.00;99.90;;;;;;4229150;28;20031;-58
2023/10/15 09:16:17;;;;;;;16.73;11.35;;;14.90;99.90;;;;;;4230715;27;20412;-57
2023/10/15 09:18:18;;;;;;;16.10;11.35;;;14.90;99.90;;;;;;4228956;28;20104;-60
2023/10/15 09:20:26;;;;;;;15.43;10.43;;;14.80;99.90;;;;;;4231023;27;20035;-61
2023/10/15 09:22:28;;;;;;;15.68;9.57;;;14.90;99.90;;;;;;4229327;27;20068;-61
2023/10/15 09:24:29;;;;;;;16.52;10.13;;;14.90;99.90;;;;;;4229840;27;20040;-63
2023/10/15 09:26:31;;;;;;;10.40;7.75;;;14.90;99.90;;;;;;4229801;27;20134;-60
2023/10/15 09:28:35;;;;;;;11.82;7.60;;;14.90;99.90;;;;;;4229547;27;20047;-56
2023/10/15 09:30:36;;;;;;;13.40;6.78;;;15.00;99.90;;;;;;4229777;27;20080;-59
2023/10/15 09:32:37;;;;;;;8.07;5.10;;;15.00;99.90;;;;;;4229375;27;20039;-60
2023/10/15 09:34:39;;;;;;;7.43;4.82;;;15.10;99.90;;;;;;4230576;27;20051;-54
2023/10/15 09:36:40;;;;;;;5.65;4.30;;;15.20;99.90;;;;;;4229352;27;20513;-57
2023/10/15 09:38:42;;;;;;;3.78;3.20;;;15.20;99.90;;;;;;4230351;27;20032;-59
2023/10/15 09:40:44;;;;;;;6.38;3.17;;;15.20;99.90;;;;;;4228948;27;20028;-60
2023/10/15 09:42:49;;;;;;;4.65;2.50;;;15.20;99.90;;;;;;4230615;27;20483;-56
2023/10/15 09:44:50;;;;;;;4.22;2.90;;;15.30;99.90;;;;;;4229384;27;20107;-58
2023/10/15 09:46:52;;;;;;;3.38;2.38;;;15.30;99.90;;;;;;4229913;28;20077;-57
2023/10/15 09:48:55;;;;;;;3.67;2.17;;;15.30;99.90;;;;;;4229264;27;20039;-60
2023/10/15 09:50:59;;;;;;;3.03;2.10;;;15.40;99.90;;;;;;4230448;27;20138;-60
2023/10/15 09:53:09;;;;;;;2.17;1.52;;;15.50;99.90;;;;;;4228929;27;20370;-60
2023/10/15 09:55:11;;;;;;;1.63;1.42;;;15.60;99.90;;;;;;4230206;27;20104;-61
2023/10/15 09:57:14;;;;;;;1.48;1.05;;;15.70;99.90;;;;;;4228605;28;20028;-56
2023/10/15 09:59:17;;;;;;;0.98;0.80;;;15.80;99.90;;;;;;4229929;27;20104;-60
2023/10/15 10:01:27;;;;;;;1.45;0.93;;;15.80;99.90;;;;;;4229240;27;20035;-61
2023/10/15 10:03:47;;;;;;;1.27;0.90;;;16.00;99.90;;;;;;4229620;27;20023;-59
2023/10/15 10:05:59;;;;;;;1.38;1.15;;;16.10;99.90;;;;;;4228759;27;20084;-59
2023/10/15 10:08:27;;;;;;;3.28;1.05;;;16.20;99.90;;;;;;4229532;27;20057;-59
2023/10/15 10:10:38;;;;;;;2.63;1.10;;;16.40;99.90;;;;;;4228745;27;20052;-59
2023/10/15 10:13:02;;;;;;;2.58;1.15;;;16.50;99.90;;;;;;4245426;27;20035;-61
2023/10/15 10:15:32;;;;;;;3.03;0.98;;;16.60;99.90;;;;;;4228600;27;20044;-60
2023/10/15 10:17:34;;;;;;;2.05;1.25;;;16.60;99.90;;;;;;4229328;28;20092;-56
2023/10/15 10:19:35;;;;;;;2.13;0.80;;;16.60;99.90;;;;;;4228675;27;20028;-59
2023/10/15 10:21:36;;;;;;;1.08;0.70;;;16.60;99.90;;;;;;4229857;28;20039;-60
2023/10/15 10:23:38;;;;;;;4.75;0.70;;;16.60;99.90;;;;;;4227830;28;20072;-60
2023/10/15 10:25:44;;;;;;;1.42;0.60;;;16.60;99.90;;;;;;4229729;27;20097;-57
2023/10/15 10:27:46;;;;;;;1.00;0.90;;;16.70;99.90;;;;;;4228009;28;20077;-60
2023/10/15 10:29:54;;;;;;;1.67;0.68;;;16.70;99.90;;;;;;4228873;28;20047;-60
2023/10/15 10:31:55;;;;;;;2.35;0.40;;;16.60;99.90;;;;;;4228488;27;20039;-59
2023/10/15 10:34:01;;;;;;;1.20;0.57;;;16.50;99.90;;;;;;4229507;27;20069;-59
2023/10/15 10:36:15;;;;;;;1.13;0.65;;;16.40;99.90;;;;;;4228713;27;20376;-60
2023/10/15 10:38:19;;;;;;;3.78;0.70;;;16.30;99.90;;;;;;4229284;27;20080;-57
2023/10/15 10:40:52;;;;;;;0.82;0.50;;;16.30;99.90;;;;;;4228165;28;20039;-55
2023/10/15 10:43:02;;;;;;;2.10;0.60;;;16.20;99.90;;;;;;4229061;28;20032;-59
2023/10/15 10:45:04;;;;;;;0.43;0.30;;;16.30;99.90;;;;;;4228282;27;20108;-58